createdAt,value
2022-10-13T00:02:46.309Z,11.74
2022-10-13T00:06:49.344Z,11.70
2022-10-13T00:10:53.204Z,11.72
2022-10-13T00:15:01.243Z,11.74
2022-10-13T00:19:04.290Z,11.70
2022-10-13T00:23:07.317Z,11.72
2022-10-13T00:27:10.794Z,11.70
2022-10-13T00:31:20.227Z,11.70
2022-10-13T00:35:23.504Z,11.65
2022-10-13T00:39:26.733Z,11.64
2022-10-13T00:43:49.766Z,11.61
2022-10-13T00:47:58.468Z,11.60
2022-10-13T00:52:01.777Z,11.61
2022-10-13T00:56:06.992Z,11.62
2022-10-13T01:00:11.519Z,11.64
2022-10-13T01:04:16.558Z,11.67
2022-10-13T01:08:21.477Z,11.72
2022-10-13T01:12:42.169Z,11.75
2022-10-13T01:16:54.852Z,11.78
2022-10-13T01:21:07.611Z,11.80
2022-10-13T01:25:27.083Z,11.79
2022-10-13T01:29:59.937Z,11.79
2022-10-13T01:34:13.021Z,11.80
2022-10-13T01:38:25.224Z,11.82
2022-10-13T01:42:35.615Z,11.78
2022-10-13T01:46:42.097Z,11.78
2022-10-13T01:50:47.994Z,11.77
2022-10-13T01:54:52.612Z,11.78
2022-10-13T01:59:00.679Z,11.81
2022-10-13T02:03:12.624Z,11.84
2022-10-13T02:07:21.594Z,11.82
2022-10-13T02:11:25.775Z,11.81
2022-10-13T02:15:33.864Z,11.78
2022-10-13T02:19:40.013Z,11.80
2022-10-13T02:23:45.114Z,11.78
2022-10-13T02:27:48.485Z,11.80
2022-10-13T02:31:53.787Z,11.81
2022-10-13T02:35:57.013Z,11.81
2022-10-13T02:40:01.697Z,11.80
2022-10-13T02:44:05.140Z,11.81
2022-10-13T02:48:16.708Z,11.85
2022-10-13T02:52:19.917Z,11.87
2022-10-13T02:56:24.621Z,11.90
2022-10-13T03:00:27.827Z,11.91
2022-10-13T03:04:31.103Z,11.93
2022-10-13T03:08:36.908Z,11.94
2022-10-13T03:12:41.379Z,11.94
2022-10-13T03:16:44.606Z,11.96
2022-10-13T03:20:58.160Z,11.97
2022-10-13T03:25:01.354Z,11.99
2022-10-13T03:29:05.785Z,12.00
2022-10-13T03:33:08.770Z,12.01
2022-10-13T03:37:11.771Z,12.00
2022-10-13T03:41:20.122Z,12.02
2022-10-13T03:45:27.536Z,12.05
2022-10-13T03:49:30.910Z,12.07
2022-10-13T03:53:34.702Z,12.09
2022-10-13T03:57:37.925Z,12.11
2022-10-13T04:01:42.290Z,12.10
2022-10-13T04:05:45.699Z,12.12
2022-10-13T04:09:48.866Z,12.12
2022-10-13T04:13:52.449Z,12.12
2022-10-13T04:17:57.039Z,12.12
2022-10-13T04:22:00.214Z,12.14
2022-10-13T04:26:03.659Z,12.15
2022-10-13T04:30:08.244Z,12.16
2022-10-13T04:34:13.510Z,12.16
2022-10-13T04:38:16.742Z,12.19
2022-10-13T04:42:20.068Z,12.19
2022-10-13T04:46:26.672Z,12.19
2022-10-13T04:50:33.690Z,12.19
2022-10-13T04:54:36.766Z,12.20
2022-10-13T04:58:40.780Z,12.21
2022-10-13T05:02:43.846Z,12.23
2022-10-13T05:07:16.074Z,12.22
2022-10-13T05:11:11.895Z,12.22
2022-10-13T05:15:16.991Z,12.25
2022-10-13T05:19:20.283Z,12.28
2022-10-13T05:23:26.799Z,12.28
2022-10-13T05:27:29.669Z,12.29
2022-10-13T05:31:34.368Z,12.30
2022-10-13T05:35:37.470Z,12.30
2022-10-13T05:39:41.974Z,12.29
2022-10-13T05:43:44.901Z,12.31
2022-10-13T05:47:47.996Z,12.32
2022-10-13T05:51:56.530Z,12.32
2022-10-13T05:56:07.075Z,12.34
2022-10-13T06:00:12.880Z,12.31
2022-10-13T06:04:20.707Z,12.27
2022-10-13T06:08:24.096Z,12.25
2022-10-13T06:12:29.178Z,12.25
2022-10-13T06:16:32.382Z,12.26
2022-10-13T06:20:35.648Z,12.29
2022-10-13T06:24:38.866Z,12.31
2022-10-13T06:28:49.807Z,12.36
2022-10-13T06:32:55.261Z,12.37
2022-10-13T06:36:58.547Z,12.34
2022-10-13T06:41:02.215Z,12.35
2022-10-13T06:45:10.783Z,12.32
2022-10-13T06:49:16.656Z,12.33
2022-10-13T06:53:19.735Z,12.34
2022-10-13T06:57:22.773Z,12.32
2022-10-13T07:01:27.235Z,12.34
2022-10-13T07:05:30.555Z,12.32
2022-10-13T07:09:33.775Z,12.32
2022-10-13T07:13:40.065Z,12.35
2022-10-13T07:17:46.536Z,12.36
2022-10-13T07:21:49.831Z,12.37
2022-10-13T07:25:53.127Z,12.40
2022-10-13T07:29:56.333Z,12.43
2022-10-13T07:34:01.180Z,12.48
2022-10-13T07:38:04.672Z,12.51
2022-10-13T07:42:07.658Z,12.56
2022-10-13T07:46:13.246Z,12.60
2022-10-13T07:50:18.179Z,12.64
2022-10-13T07:54:23.774Z,12.67
2022-10-13T07:58:30.018Z,12.69
2022-10-13T08:02:33.350Z,12.61
2022-10-13T08:10:44.893Z,12.62
2022-10-13T08:14:51.572Z,12.65
2022-10-13T08:18:54.995Z,12.68
2022-10-13T08:22:59.436Z,12.75
2022-10-13T08:27:02.676Z,12.76
2022-10-13T08:31:06.093Z,12.82
2022-10-13T08:35:10.522Z,12.87
2022-10-13T08:39:15.113Z,12.88
2022-10-13T08:43:20.532Z,12.90
2022-10-13T08:47:34.283Z,12.94
2022-10-13T08:51:37.461Z,12.98
2022-10-13T08:55:45.537Z,12.98
2022-10-13T08:59:49.349Z,13.01
2022-10-13T09:03:54.709Z,13.06
2022-10-13T09:08:00.194Z,13.09
2022-10-13T09:12:05.377Z,13.13
2022-10-13T09:16:09.186Z,13.17
2022-10-13T09:20:21.106Z,13.25
2022-10-13T09:24:25.971Z,13.33
2022-10-13T09:28:31.993Z,13.36
2022-10-13T09:32:37.084Z,13.42
2022-10-13T09:36:41.721Z,13.38
2022-10-13T09:40:56.868Z,13.38
2022-10-13T09:45:03.911Z,13.43
2022-10-13T09:49:22.446Z,13.49
2022-10-13T09:53:31.240Z,13.52
2022-10-13T09:57:42.585Z,13.59
2022-10-13T10:01:50.927Z,13.63
2022-10-13T10:05:56.262Z,13.60
2022-10-13T10:10:04.935Z,13.57
2022-10-13T10:14:16.965Z,13.53
2022-10-13T10:18:31.031Z,13.54
2022-10-13T10:22:40.032Z,13.57
2022-10-13T10:26:52.873Z,13.62
2022-10-13T10:31:03.087Z,13.70
2022-10-13T10:35:13.828Z,13.77
2022-10-13T10:39:30.624Z,13.87
2022-10-13T10:43:46.968Z,13.94
2022-10-13T10:47:57.787Z,13.93
2022-10-13T10:52:09.377Z,13.90
2022-10-13T10:56:23.940Z,13.95
2022-10-13T11:00:30.436Z,13.98
2022-10-13T11:04:42.628Z,13.96
2022-10-13T11:08:49.174Z,14.02
2022-10-13T11:13:22.340Z,14.07
2022-10-13T11:17:29.538Z,14.09
2022-10-13T11:22:06.337Z,14.08
2022-10-13T11:26:31.198Z,14.09
2022-10-13T11:30:50.210Z,14.15
2022-10-13T11:34:59.303Z,14.22
2022-10-13T11:39:16.610Z,14.29
2022-10-13T11:43:43.126Z,14.34
2022-10-13T11:48:30.867Z,14.33
2022-10-13T11:53:01.140Z,14.33
2022-10-13T11:57:05.871Z,14.43
2022-10-13T12:01:15.842Z,14.46
2022-10-13T12:05:23.566Z,14.50
2022-10-13T12:09:27.142Z,14.51
2022-10-13T12:13:32.309Z,14.53
2022-10-13T12:17:38.957Z,14.51
2022-10-13T12:21:51.207Z,14.60
2022-10-13T12:25:58.409Z,14.67
2022-10-13T12:30:02.111Z,14.69
2022-10-13T12:34:23.789Z,14.74
2022-10-13T12:38:27.060Z,14.73
2022-10-13T12:42:32.690Z,14.80
2022-10-13T12:46:41.729Z,14.86
2022-10-13T12:50:46.182Z,14.85
2022-10-13T12:54:51.635Z,14.82
2022-10-13T12:58:56.623Z,14.81
2022-10-13T13:03:01.381Z,14.83
2022-10-13T13:07:22.893Z,14.81
2022-10-13T13:11:35.575Z,14.88
2022-10-13T13:15:41.566Z,14.93
2022-10-13T13:19:47.196Z,14.94
2022-10-13T13:23:53.989Z,14.94
2022-10-13T13:27:57.465Z,14.96
2022-10-13T13:32:00.461Z,14.99
2022-10-13T13:36:03.956Z,15.03
2022-10-13T13:40:15.159Z,15.06
2022-10-13T13:44:18.280Z,15.11
2022-10-13T13:48:24.445Z,15.09
2022-10-13T13:52:27.540Z,15.03
2022-10-13T13:56:32.121Z,15.00
2022-10-13T14:00:35.383Z,14.98
2022-10-13T14:04:38.526Z,14.97
2022-10-13T14:08:43.198Z,14.91
2022-10-13T14:12:47.809Z,14.86
2022-10-13T14:16:50.966Z,14.83
2022-10-13T14:20:54.362Z,14.82
2022-10-13T14:24:57.313Z,14.81
2022-10-13T14:29:01.678Z,14.82
2022-10-13T14:33:05.018Z,14.84
2022-10-13T14:37:08.494Z,14.84
2022-10-13T14:41:11.458Z,14.84
2022-10-13T14:45:16.791Z,14.85
2022-10-13T14:49:19.766Z,14.83
2022-10-13T14:53:26.637Z,14.81
2022-10-13T14:57:29.612Z,14.78
2022-10-13T15:01:34.675Z,14.74
2022-10-13T15:05:37.722Z,14.68
2022-10-13T15:09:52.981Z,14.65
2022-10-13T15:14:04.478Z,14.65
2022-10-13T15:18:09.052Z,14.65
2022-10-13T15:22:12.121Z,14.60
2022-10-13T15:26:17.681Z,14.52
2022-10-13T15:30:20.867Z,14.48
2022-10-13T15:34:25.212Z,14.42
2022-10-13T15:38:28.384Z,14.37
2022-10-13T15:42:31.488Z,14.27
2022-10-13T15:46:34.697Z,14.14
2022-10-13T15:50:41.119Z,14.05
2022-10-13T15:54:44.433Z,13.95
2022-10-13T15:58:48.000Z,13.88
2022-10-13T16:02:52.513Z,13.78
2022-10-13T16:06:56.948Z,13.70
2022-10-13T16:11:02.305Z,13.61
2022-10-13T16:15:05.912Z,13.55
2022-10-13T16:19:09.129Z,13.50
2022-10-13T16:23:13.670Z,13.44
2022-10-13T16:27:17.146Z,13.41
2022-10-13T16:31:20.160Z,13.38
2022-10-13T16:35:23.131Z,13.38
2022-10-13T16:39:28.465Z,13.37
2022-10-13T16:43:31.619Z,13.36
2022-10-13T16:47:34.875Z,13.33
2022-10-13T16:51:37.867Z,13.29
2022-10-13T16:55:42.479Z,13.25
2022-10-13T16:59:45.623Z,13.21
2022-10-13T17:03:50.307Z,13.15
2022-10-13T17:07:53.511Z,13.10
2022-10-13T17:11:57.864Z,13.04
2022-10-13T17:16:01.263Z,13.00
2022-10-13T17:20:05.288Z,12.94
2022-10-13T17:24:08.696Z,12.90
2022-10-13T17:28:13.189Z,12.88
2022-10-13T17:32:16.405Z,12.85
2022-10-13T17:36:21.039Z,12.80
2022-10-13T17:40:24.274Z,12.78
2022-10-13T17:44:28.770Z,12.73
2022-10-13T17:48:31.904Z,12.68
2022-10-13T17:52:35.064Z,12.63
2022-10-13T17:56:38.469Z,12.56
2022-10-13T18:01:08.082Z,12.49
2022-10-13T18:05:06.750Z,12.43
2022-10-13T18:09:12.746Z,12.36
2022-10-13T18:13:16.267Z,12.29
2022-10-13T18:17:21.319Z,12.22
2022-10-13T18:21:26.900Z,12.16
2022-10-13T18:25:29.930Z,12.11
2022-10-13T18:29:33.380Z,12.04
2022-10-13T18:33:38.074Z,12.02
2022-10-13T18:37:41.097Z,11.98
2022-10-13T18:41:44.962Z,11.91
2022-10-13T18:45:48.010Z,11.87
2022-10-13T18:49:52.743Z,11.83
2022-10-13T18:53:55.822Z,11.78
2022-10-13T18:58:00.462Z,11.73
2022-10-13T19:02:03.440Z,11.69
2022-10-13T19:06:10.343Z,11.68
2022-10-13T19:10:17.208Z,11.66
2022-10-13T19:14:20.735Z,11.63
2022-10-13T19:18:23.943Z,11.60
2022-10-13T19:22:28.857Z,11.59
2022-10-13T19:26:33.875Z,11.56
2022-10-13T19:30:37.206Z,11.55
2022-10-13T19:34:41.090Z,11.53
2022-10-13T19:38:50.275Z,11.51
2022-10-13T19:42:53.664Z,11.50
2022-10-13T19:46:57.056Z,11.49
2022-10-13T19:51:01.667Z,11.49
2022-10-13T19:55:07.010Z,11.49
2022-10-13T19:59:10.266Z,11.47
2022-10-13T20:03:14.190Z,11.46
2022-10-13T20:07:22.389Z,11.44
2022-10-13T20:11:27.377Z,11.44
2022-10-13T20:15:30.433Z,11.45
2022-10-13T20:19:38.373Z,11.44
2022-10-13T20:23:42.102Z,11.40
2022-10-13T20:27:46.788Z,11.39
2022-10-13T20:31:50.165Z,11.38
2022-10-13T20:35:55.523Z,11.36
2022-10-13T20:39:58.738Z,11.34
2022-10-13T20:44:03.768Z,11.33
2022-10-13T20:48:09.392Z,11.33
2022-10-13T20:52:12.500Z,11.31
2022-10-13T20:56:18.217Z,11.30
2022-10-13T21:00:22.869Z,11.29
2022-10-13T21:04:26.456Z,11.27
2022-10-13T21:08:30.660Z,11.25
2022-10-13T21:12:34.054Z,11.20
2022-10-13T21:16:39.494Z,11.18
2022-10-13T21:20:44.795Z,11.19
2022-10-13T21:24:47.743Z,11.19
2022-10-13T21:28:52.019Z,11.19
2022-10-13T21:32:56.603Z,11.18
2022-10-13T21:36:59.678Z,11.19
2022-10-13T21:41:05.143Z,11.19
2022-10-13T21:45:09.933Z,11.18
2022-10-13T21:49:14.540Z,11.16
2022-10-13T21:53:17.665Z,11.16
2022-10-13T21:57:22.298Z,11.13
2022-10-13T22:01:26.246Z,11.10
2022-10-13T22:05:30.882Z,11.06
2022-10-13T22:09:34.044Z,11.04
2022-10-13T22:13:38.145Z,11.01
2022-10-13T22:17:41.472Z,10.98
2022-10-13T22:21:47.850Z,10.98
2022-10-13T22:25:51.419Z,10.97
2022-10-13T22:29:54.808Z,10.95
2022-10-13T22:33:57.891Z,10.92
2022-10-13T22:38:02.252Z,10.90
2022-10-13T22:42:05.507Z,10.88
2022-10-13T22:46:10.725Z,10.85
2022-10-13T22:50:13.917Z,10.82
2022-10-13T22:54:18.531Z,10.79
2022-10-13T22:58:22.024Z,10.78
2022-10-13T23:02:26.106Z,10.75
2022-10-13T23:06:31.268Z,10.71
2022-10-13T23:10:37.477Z,10.68
2022-10-13T23:14:40.503Z,10.65
2022-10-13T23:18:43.934Z,10.62
2022-10-13T23:23:05.034Z,10.57
2022-10-13T23:27:09.810Z,10.55
2022-10-13T23:31:14.569Z,10.54
2022-10-13T23:35:17.786Z,10.53
2022-10-13T23:39:21.186Z,10.52
2022-10-13T23:43:25.707Z,10.51
2022-10-13T23:47:28.806Z,10.47
2022-10-13T23:51:31.993Z,10.44
2022-10-13T23:55:38.616Z,10.41
2022-10-13T23:59:43.028Z,10.41
